Time;durP1;ratioP1;P1;durP2;ratioP2;P2;SDS_P1;SDS_P2;PMS_P1;PMS_P2;Temp;Humidity;BMP_temperature;BMP_pressure;BME280_temperature;BME280_humidity;BME280_pressure;Samples;Min_cycle;Max_cycle;Signal;HPM_P1;HPM_P2
2023/03/08 00:02:24;;;;;;;17.30;11.43;;;;;;;2.92;67.62;95361.00;5053502;28;20308;-76
2023/03/08 00:04:54;;;;;;;16.43;11.80;;;;;;;2.92;68.12;95368.78;5053995;28;20205;-76
2023/03/08 00:07:19;;;;;;;14.73;13.13;;;;;;;2.95;68.17;95367.56;5053532;28;20661;-77
2023/03/08 00:09:45;;;;;;;15.70;13.10;;;;;;;2.95;69.03;95361.59;5052593;28;20190;-77
2023/03/08 00:12:10;;;;;;;14.80;13.30;;;;;;;3.04;68.08;95365.47;5053372;28;20511;-76
2023/03/08 00:14:36;;;;;;;16.50;14.83;;;;;;;3.07;68.15;95358.06;5053852;28;20186;-76
2023/03/08 00:17:01;;;;;;;15.60;13.57;;;;;;;3.09;67.86;95360.44;5053583;28;20197;-77
2023/03/08 00:19:27;;;;;;;19.47;14.20;;;;;;;3.09;67.96;95370.81;5052246;28;20205;-77
2023/03/08 00:21:52;;;;;;;16.73;13.97;;;;;;;3.12;68.87;95365.22;5052460;28;20201;-77
2023/03/08 00:24:18;;;;;;;15.90;14.20;;;;;;;3.11;67.81;95363.63;5053489;28;20197;-77
2023/03/08 00:26:44;;;;;;;15.40;13.77;;;;;;;3.16;68.20;95353.41;5053083;28;20190;-77
2023/03/08 00:29:09;;;;;;;15.77;13.33;;;;;;;3.08;68.27;95369.22;5051773;28;20198;-76
2023/03/08 00:31:34;;;;;;;15.80;13.97;;;;;;;3.12;68.37;95368.56;5052626;28;20209;-78
2023/03/08 00:34:00;;;;;;;16.07;14.37;;;;;;;3.16;68.41;95372.31;5053089;28;20204;-76
2023/03/08 00:36:25;;;;;;;16.80;13.73;;;;;;;3.18;68.69;95375.47;5053198;28;20225;-77
2023/03/08 00:38:51;;;;;;;16.07;14.20;;;;;;;3.19;68.33;95377.06;5053229;28;20190;-77
2023/03/08 00:41:17;;;;;;;15.63;14.03;;;;;;;3.12;68.74;95385.91;5051771;28;20596;-77
2023/03/08 00:43:42;;;;;;;16.37;14.63;;;;;;;3.12;68.88;95386.69;5052964;28;20196;-77
2023/03/08 00:46:08;;;;;;;16.23;14.63;;;;;;;3.24;68.18;95384.97;5051150;28;20281;-76
2023/03/08 00:48:33;;;;;;;16.17;13.53;;;;;;;3.21;68.14;95388.00;5053172;28;20186;-76
2023/03/08 00:50:59;;;;;;;14.43;12.90;;;;;;;3.15;68.98;95378.50;5053165;28;20281;-76
2023/03/08 00:53:25;;;;;;;15.07;13.27;;;;;;;3.09;69.24;95371.59;5052849;28;20186;-76
2023/03/08 00:55:55;;;;;;;13.83;12.43;;;;;;;3.12;69.92;95362.63;5053089;28;20198;-76
2023/03/08 00:58:22;;;;;;;15.53;12.07;;;;;;;3.07;69.44;95363.25;5052214;28;20197;-77
2023/03/08 01:00:47;;;;;;;13.60;11.17;;;;;;;3.10;70.14;95357.66;5052773;28;20257;-77
2023/03/08 01:03:13;;;;;;;13.00;10.83;;;;;;;3.09;69.50;95352.69;5053015;28;20232;-76
2023/03/08 01:05:44;;;;;;;14.43;11.83;;;;;;;3.13;69.87;95341.69;5052800;28;20186;-77
2023/03/08 01:08:10;;;;;;;12.43;10.17;;;;;;;3.12;69.72;95341.91;5052275;28;20661;-76
2023/03/08 01:10:35;;;;;;;15.90;11.00;;;;;;;3.03;70.49;95330.25;5052615;28;20210;-76
2023/03/08 01:13:01;;;;;;;12.63;10.47;;;;;;;3.08;69.97;95327.81;5052739;28;20194;-78
2023/03/08 01:15:27;;;;;;;13.43;11.53;;;;;;;2.90;70.56;95328.56;5052460;28;20268;-77
2023/03/08 01:17:52;;;;;;;14.53;10.83;;;;;;;2.86;70.58;95325.63;5052604;28;20194;-77
2023/03/08 01:20:18;;;;;;;14.57;11.80;;;;;;;2.88;70.98;95330.59;5052051;28;20231;-77
2023/03/08 01:22:43;;;;;;;13.87;11.40;;;;;;;2.80;71.11;95330.88;5052513;28;20189;-77
2023/03/08 01:25:09;;;;;;;12.33;11.03;;;;;;;2.71;70.71;95327.00;5052685;28;20277;-76
2023/03/08 01:27:34;;;;;;;13.27;11.33;;;;;;;2.65;71.54;95315.69;5052012;28;20285;-77
2023/03/08 01:29:59;;;;;;;14.73;10.60;;;;;;;2.47;71.89;95326.00;5052445;28;20205;-76
2023/03/08 01:32:25;;;;;;;13.30;10.60;;;;;;;2.48;71.96;95315.44;5052220;28;20274;-76
2023/03/08 01:34:50;;;;;;;13.17;10.30;;;;;;;2.50;72.45;95302.31;5052300;28;20245;-76
2023/03/08 01:37:16;;;;;;;13.07;10.10;;;;;;;2.44;72.46;95308.34;5052487;28;20197;-74
2023/03/08 01:39:41;;;;;;;12.17;10.07;;;;;;;2.35;72.57;95305.22;5051990;28;20198;-75
2023/03/08 01:42:07;;;;;;;11.00;9.80;;;;;;;2.40;73.22;95299.41;5052270;28;20182;-75
2023/03/08 01:44:52;;;;;;;14.40;10.47;;;;;;;2.31;73.08;95296.31;5050708;28;20583;-75
2023/03/08 01:47:20;;;;;;;12.47;10.53;;;;;;;2.26;73.96;95287.59;5052691;28;20221;-75
2023/03/08 01:49:46;;;;;;;13.13;10.20;;;;;;;2.33;73.50;95278.81;5051435;28;20208;-75
2023/03/08 01:52:18;;;;;;;14.30;10.10;;;;;;;2.24;74.09;95274.09;5052543;28;20220;-75
2023/03/08 01:54:55;;;;;;;12.73;10.70;;;;;;;2.18;74.31;95267.97;5052280;28;20186;-75
2023/03/08 01:57:25;;;;;;;12.20;10.33;;;;;;;2.14;74.14;95261.66;5052346;28;20276;-75
2023/03/08 01:59:54;;;;;;;13.13;10.37;;;;;;;2.12;74.02;95252.56;5053712;28;20178;-75
2023/03/08 02:02:27;;;;;;;12.63;10.03;;;;;;;2.10;74.34;95252.75;5054383;28;20225;-74
2023/03/08 02:04:52;;;;;;;15.10;11.37;;;;;;;2.09;74.73;95249.38;5055135;28;20269;-75
2023/03/08 02:07:17;;;;;;;14.57;10.33;;;;;;;1.96;75.10;95246.09;5054247;28;20230;-75
2023/03/08 02:09:44;;;;;;;15.60;10.57;;;;;;;1.95;74.34;95249.69;5053265;28;20202;-75
2023/03/08 02:12:12;;;;;;;14.60;11.00;;;;;;;2.05;74.48;95250.00;5053012;28;20194;-75
2023/03/08 02:14:39;;;;;;;12.37;11.00;;;;;;;1.97;74.43;95248.47;5059624;28;20198;-76
2023/03/08 02:17:05;;;;;;;13.73;11.03;;;;;;;2.01;74.38;95254.78;5053973;28;20259;-76
2023/03/08 02:19:43;;;;;;;12.70;11.37;;;;;;;2.01;74.56;95254.78;5056030;28;20202;-77
2023/03/08 02:22:14;;;;;;;12.93;10.97;;;;;;;2.03;74.58;95252.81;5055384;28;20331;-76
2023/03/08 02:24:39;;;;;;;13.67;11.03;;;;;;;2.00;73.99;95250.66;5054591;28;20193;-76
2023/03/08 02:27:25;;;;;;;14.57;11.50;;;;;;;2.01;74.92;95241.09;5055491;28;20186;-76
2023/03/08 02:29:51;;;;;;;11.87;10.47;;;;;;;2.07;74.40;95237.66;5055432;28;20611;-76
2023/03/08 02:32:16;;;;;;;14.10;11.10;;;;;;;2.09;73.78;95228.69;5055285;28;20233;-76
2023/03/08 02:34:42;;;;;;;14.00;11.10;;;;;;;2.18;73.84;95218.88;5055458;28;20241;-76
2023/03/08 02:37:07;;;;;;;15.23;10.87;;;;;;;2.12;74.29;95224.88;5053552;28;20190;-76
2023/03/08 02:39:33;;;;;;;13.57;10.67;;;;;;;2.21;74.13;95222.84;5055238;28;20648;-76
2023/03/08 02:41:58;;;;;;;13.33;10.20;;;;;;;2.18;73.52;95226.63;5055436;28;20693;-75
2023/03/08 02:44:24;;;;;;;13.97;10.53;;;;;;;2.16;74.27;95225.28;5052598;28;20198;-75
2023/03/08 02:46:50;;;;;;;12.67;10.20;;;;;;;2.18;74.56;95215.50;5055386;28;20193;-76
2023/03/08 02:49:16;;;;;;;11.67;10.37;;;;;;;2.19;74.35;95211.91;5055599;28;20316;-76
2023/03/08 02:51:41;;;;;;;14.50;10.33;;;;;;;2.30;73.29;95199.09;5054793;28;20212;-76
2023/03/08 02:54:06;;;;;;;12.83;9.90;;;;;;;2.30;73.20;95206.03;5055717;28;20198;-76
2023/03/08 02:56:32;;;;;;;13.17;10.27;;;;;;;2.25;73.45;95208.47;5055324;28;20201;-76
2023/03/08 02:58:57;;;;;;;11.63;8.83;;;;;;;2.30;73.63;95214.59;5055043;28;20186;-75
2023/03/08 03:01:23;;;;;;;12.07;10.50;;;;;;;2.38;73.17;95203.19;5054511;28;20206;-76
2023/03/08 03:03:49;;;;;;;12.97;10.00;;;;;;;2.30;73.56;95198.28;5054591;28;20215;-75
2023/03/08 03:06:16;;;;;;;13.70;9.97;;;;;;;2.34;73.46;95194.28;5053707;28;20224;-75
2023/03/08 03:08:42;;;;;;;12.93;9.80;;;;;;;2.30;73.29;95193.91;5054887;28;20201;-75
2023/03/08 03:11:21;;;;;;;14.23;10.07;;;;;;;2.38;73.01;95187.69;5054939;28;20214;-76
2023/03/08 03:13:52;;;;;;;13.33;9.93;;;;;;;2.34;72.83;95182.13;5054799;28;20209;-76
2023/03/08 03:16:17;;;;;;;13.10;10.40;;;;;;;2.30;72.97;95172.44;5054906;28;20194;-75
2023/03/08 03:18:43;;;;;;;13.27;9.63;;;;;;;2.42;72.60;95163.75;5054723;28;20713;-75
2023/03/08 03:21:11;;;;;;;16.10;10.90;;;;;;;2.44;72.98;95163.56;5054448;28;20202;-75
2023/03/08 03:23:38;;;;;;;12.47;9.87;;;;;;;2.41;72.46;95151.84;5054439;28;20232;-76
2023/03/08 03:26:12;;;;;;;13.80;10.27;;;;;;;2.46;73.26;95151.19;5054814;28;20190;-76
2023/03/08 03:28:38;;;;;;;17.43;10.03;;;;;;;2.48;73.20;95147.38;5052294;28;20213;-76
2023/03/08 03:31:12;;;;;;;13.20;10.40;;;;;;;2.41;72.77;95141.50;5054242;28;20299;-76
2023/03/08 03:33:38;;;;;;;16.03;10.83;;;;;;;2.40;73.42;95144.28;5054239;28;20264;-75
2023/03/08 03:36:04;;;;;;;14.37;10.47;;;;;;;2.47;73.04;95148.38;5054243;28;20308;-75
2023/03/08 03:38:30;;;;;;;16.57;10.90;;;;;;;2.40;72.55;95146.88;5054316;28;20182;-75
2023/03/08 03:41:03;;;;;;;13.30;10.23;;;;;;;2.55;72.91;95144.72;5054557;28;20220;-76
2023/03/08 03:43:28;;;;;;;11.97;10.47;;;;;;;2.53;72.63;95145.94;5052218;28;20201;-76
2023/03/08 03:45:58;;;;;;;13.93;9.97;;;;;;;2.51;72.25;95134.00;5054218;28;20540;-76
2023/03/08 03:48:23;;;;;;;13.90;10.93;;;;;;;2.58;72.53;95133.16;5054299;28;20541;-76
2023/03/08 03:50:56;;;;;;;12.50;10.13;;;;;;;2.62;71.96;95137.66;5054138;28;20205;-76
2023/03/08 03:53:22;;;;;;;12.17;9.70;;;;;;;2.60;72.71;95133.75;5053082;28;20186;-75
2023/03/08 03:55:47;;;;;;;13.50;10.33;;;;;;;2.64;72.69;95135.66;5054095;28;20701;-76
2023/03/08 03:58:13;;;;;;;12.63;9.83;;;;;;;2.58;72.75;95121.00;5053772;28;20190;-76
2023/03/08 04:00:38;;;;;;;13.33;10.27;;;;;;;2.56;73.41;95132.59;5053817;28;20210;-76
2023/03/08 04:03:03;;;;;;;11.83;10.20;;;;;;;2.59;72.74;95130.34;5053903;28;20202;-75
2023/03/08 04:05:29;;;;;;;16.00;10.17;;;;;;;2.63;73.44;95123.72;5053827;28;20204;-75
2023/03/08 04:07:54;;;;;;;12.90;9.77;;;;;;;2.60;72.98;95131.16;5054180;28;20216;-75
2023/03/08 04:10:19;;;;;;;15.60;10.67;;;;;;;2.67;72.50;95121.53;5053288;28;20224;-76
2023/03/08 04:12:48;;;;;;;12.43;10.07;;;;;;;2.58;73.10;95123.59;5054144;28;20233;-76
2023/03/08 04:15:13;;;;;;;14.63;9.97;;;;;;;2.63;73.17;95110.81;5053296;28;20181;-76
2023/03/08 04:17:38;;;;;;;15.87;11.20;;;;;;;2.67;72.57;95109.38;5053549;28;20212;-76
2023/03/08 04:20:05;;;;;;;14.90;10.70;;;;;;;2.59;72.90;95099.31;5051739;28;20256;-76
2023/03/08 04:22:30;;;;;;;13.30;10.17;;;;;;;2.64;72.68;95098.66;5052277;28;20514;-75
2023/03/08 04:24:55;;;;;;;13.50;10.50;;;;;;;2.68;73.30;95108.34;5053330;28;20189;-75
2023/03/08 04:27:21;;;;;;;15.20;10.20;;;;;;;2.62;72.65;95093.69;5053403;28;20239;-77
2023/03/08 04:29:46;;;;;;;13.67;11.37;;;;;;;2.74;72.71;95089.38;5053030;28;20253;-78
2023/03/08 04:32:11;;;;;;;13.97;11.53;;;;;;;2.73;72.95;95094.78;5052340;28;20595;-75
2023/03/08 04:34:37;;;;;;;11.90;10.27;;;;;;;2.65;73.01;95093.28;5052881;28;20221;-75
2023/03/08 04:37:02;;;;;;;11.47;10.07;;;;;;;2.57;73.06;95105.72;5053040;28;20183;-75
2023/03/08 04:39:27;;;;;;;15.13;11.03;;;;;;;2.69;72.43;95119.50;5052800;28;20631;-75
2023/03/08 04:41:53;;;;;;;15.50;12.13;;;;;;;2.67;72.76;95104.22;5052485;28;20205;-76
2023/03/08 04:44:18;;;;;;;12.67;10.40;;;;;;;2.75;72.48;95093.53;5051897;28;20257;-76
2023/03/08 04:46:43;;;;;;;15.50;11.20;;;;;;;2.74;72.74;95089.38;5052639;28;20235;-76
2023/03/08 04:49:09;;;;;;;14.00;11.43;;;;;;;2.74;72.68;95080.81;5052974;28;20358;-76
2023/03/08 04:51:34;;;;;;;19.33;11.70;;;;;;;2.73;73.30;95082.63;5053146;28;20213;-76
2023/03/08 04:53:59;;;;;;;14.30;11.13;;;;;;;2.73;72.78;95076.69;5052930;28;20185;-76
2023/03/08 04:56:25;;;;;;;14.43;11.93;;;;;;;2.74;73.36;95067.88;5052721;28;20556;-76
2023/03/08 04:58:50;;;;;;;14.97;11.03;;;;;;;2.71;73.52;95074.31;5052674;28;20212;-76
2023/03/08 05:01:21;;;;;;;13.90;11.90;;;;;;;2.78;72.88;95056.13;5053157;28;20201;-76
2023/03/08 05:03:50;;;;;;;12.97;10.90;;;;;;;2.70;73.22;95057.19;5052116;28;20543;-78
2023/03/08 05:06:16;;;;;;;14.33;11.33;;;;;;;2.72;73.70;95050.03;5052791;28;20558;-77
2023/03/08 05:08:42;;;;;;;16.83;11.07;;;;;;;2.79;73.08;95042.16;5052822;28;20532;-77
2023/03/08 05:11:08;;;;;;;12.23;10.70;;;;;;;2.80;73.13;95036.75;5052597;28;20216;-77
2023/03/08 05:13:37;;;;;;;16.27;11.67;;;;;;;2.75;73.68;95039.22;5052602;28;20192;-78
2023/03/08 05:16:05;;;;;;;13.90;11.57;;;;;;;2.88;73.04;95028.69;5052963;28;20198;-78
2023/03/08 05:18:31;;;;;;;15.60;12.10;;;;;;;2.93;72.84;95023.66;5052917;28;20343;-76
2023/03/08 05:20:59;;;;;;;13.50;11.87;;;;;;;2.89;73.09;95032.06;5051835;28;20223;-77
2023/03/08 05:23:26;;;;;;;14.87;11.73;;;;;;;2.89;72.97;95032.88;5052837;28;20646;-76
2023/03/08 05:25:53;;;;;;;13.03;11.63;;;;;;;2.84;73.12;95037.13;5052370;28;20600;-78
2023/03/08 05:28:18;;;;;;;15.33;12.57;;;;;;;2.93;72.29;95036.59;5052699;28;20190;-77
2023/03/08 05:30:44;;;;;;;17.70;12.03;;;;;;;2.95;72.89;95031.19;5052460;28;20205;-77
2023/03/08 05:33:09;;;;;;;16.40;11.77;;;;;;;2.99;72.84;95026.34;5051530;28;20189;-77
2023/03/08 05:35:34;;;;;;;14.00;11.73;;;;;;;3.02;72.44;95018.91;5052254;28;20218;-78
2023/03/08 05:38:00;;;;;;;19.47;12.87;;;;;;;3.08;72.24;95025.00;5051042;28;20646;-77
2023/03/08 05:40:25;;;;;;;15.20;12.10;;;;;;;3.06;72.45;95020.06;5061999;28;20193;-77
2023/03/08 05:42:50;;;;;;;16.43;12.17;;;;;;;3.04;73.42;95016.91;5054662;28;20202;-77
2023/03/08 05:45:16;;;;;;;14.83;12.33;;;;;;;2.96;72.98;95009.44;5052496;28;20649;-77
2023/03/08 05:47:41;;;;;;;17.97;12.73;;;;;;;3.06;72.93;95001.97;5052305;28;20194;-77
2023/03/08 05:50:07;;;;;;;15.53;12.63;;;;;;;3.09;72.97;94998.13;5052441;28;20209;-77
2023/03/08 05:52:33;;;;;;;14.47;11.73;;;;;;;3.11;73.22;94989.13;5056323;28;20639;-77
2023/03/08 05:54:58;;;;;;;16.67;12.80;;;;;;;3.07;73.54;95000.91;5055644;28;20227;-77
2023/03/08 05:57:23;;;;;;;15.43;11.70;;;;;;;3.11;72.57;94996.09;5056090;28;20295;-77
2023/03/08 05:59:48;;;;;;;15.67;12.13;;;;;;;3.21;72.74;94993.75;5056254;28;20201;-77
2023/03/08 06:02:14;;;;;;;16.20;12.27;;;;;;;3.25;73.11;94997.44;5055652;28;20269;-78
2023/03/08 06:04:39;;;;;;;15.40;12.23;;;;;;;3.20;73.17;95000.72;5054868;28;20276;-77
2023/03/08 06:07:04;;;;;;;17.13;11.17;;;;;;;3.33;73.63;95000.50;5054310;28;20218;-78
2023/03/08 06:09:30;;;;;;;17.87;13.53;;;;;;;3.38;73.45;94999.81;5056008;28;20204;-78
2023/03/08 06:11:55;;;;;;;16.87;12.53;;;;;;;3.45;73.64;94992.75;5055740;28;20296;-78
2023/03/08 06:14:21;;;;;;;13.90;12.13;;;;;;;3.46;73.38;94998.69;5050898;28;20545;-77
2023/03/08 06:16:47;;;;;;;17.83;12.57;;;;;;;3.41;73.23;95001.16;5055961;28;20677;-78
2023/03/08 06:19:13;;;;;;;17.87;12.77;;;;;;;3.42;72.92;95003.53;5055297;28;20190;-76
2023/03/08 06:21:39;;;;;;;15.97;11.97;;;;;;;3.37;73.93;94995.66;5055688;28;20659;-78
2023/03/08 06:24:05;;;;;;;16.60;12.77;;;;;;;3.44;73.16;94992.97;5055584;28;20198;-77
2023/03/08 06:26:30;;;;;;;16.63;12.73;;;;;;;3.45;73.95;94994.53;5055414;28;20579;-76
2023/03/08 06:28:55;;;;;;;19.93;13.30;;;;;;;3.43;73.83;94978.44;5054906;28;20233;-76
2023/03/08 06:31:21;;;;;;;15.33;11.90;;;;;;;3.43;74.41;94981.81;5055108;28;20209;-76
2023/03/08 06:33:46;;;;;;;14.53;12.40;;;;;;;3.50;74.61;94972.13;5053958;28;20292;-77
2023/03/08 06:36:14;;;;;;;19.53;12.97;;;;;;;3.42;73.66;94976.84;5055423;28;20556;-77
2023/03/08 06:38:40;;;;;;;13.43;12.00;;;;;;;3.40;73.90;94971.13;5055149;28;20202;-77
2023/03/08 06:41:07;;;;;;;18.30;12.83;;;;;;;3.45;73.41;94968.66;5053675;28;20260;-76
2023/03/08 06:43:32;;;;;;;17.47;12.73;;;;;;;3.41;73.75;94959.72;5054834;28;20666;-77
2023/03/08 06:46:01;;;;;;;16.57;12.10;;;;;;;3.36;73.81;94963.00;5069597;28;20186;-77
2023/03/08 06:48:27;;;;;;;15.10;12.07;;;;;;;3.41;72.99;94955.34;5055569;28;20190;-76
2023/03/08 06:50:52;;;;;;;16.67;12.83;;;;;;;3.49;73.32;94955.00;5055464;28;20569;-76
2023/03/08 06:53:17;;;;;;;17.20;12.27;;;;;;;3.40;73.78;94946.00;5055334;28;20557;-78
2023/03/08 06:55:43;;;;;;;16.97;12.23;;;;;;;3.56;72.92;94945.31;5054925;28;20695;-77
2023/03/08 06:58:08;;;;;;;15.40;12.50;;;;;;;3.50;72.86;94948.03;5053937;28;20189;-77
2023/03/08 07:00:34;;;;;;;16.00;13.20;;;;;;;3.48;72.45;94945.66;5055537;28;20198;-76
2023/03/08 07:02:59;;;;;;;22.20;12.90;;;;;;;3.63;72.67;94934.81;5054483;28;20186;-76
2023/03/08 07:05:25;;;;;;;19.87;14.60;;;;;;;3.67;71.85;94930.78;5055183;28;20202;-76
2023/03/08 07:07:50;;;;;;;17.97;12.70;;;;;;;3.87;71.17;94935.56;5054956;28;20280;-76
2023/03/08 07:10:19;;;;;;;16.23;12.77;;;;;;;3.71;72.54;94937.06;5055159;28;20682;-76
2023/03/08 07:12:47;;;;;;;18.10;13.77;;;;;;;3.92;71.87;94939.03;5054862;28;20190;-76
2023/03/08 07:15:14;;;;;;;17.77;12.90;;;;;;;3.88;71.78;94932.75;5054632;28;20635;-77
2023/03/08 07:17:42;;;;;;;15.20;12.50;;;;;;;4.02;71.73;94917.69;5054844;28;20185;-77
2023/03/08 07:20:12;;;;;;;15.40;12.57;;;;;;;3.87;71.43;94907.03;5053961;28;20611;-77
2023/03/08 07:22:40;;;;;;;17.13;12.43;;;;;;;3.91;71.63;94908.94;5053287;28;20200;-77
2023/03/08 07:25:07;;;;;;;18.83;12.77;;;;;;;3.98;72.53;94914.78;5064316;28;20194;-77
2023/03/08 07:27:32;;;;;;;20.80;13.17;;;;;;;3.92;71.93;94905.34;5054749;28;20218;-76
2023/03/08 07:29:58;;;;;;;15.80;12.90;;;;;;;3.90;72.11;94904.78;5054077;28;20678;-78
2023/03/08 07:32:27;;;;;;;17.50;12.80;;;;;;;4.00;71.79;94907.56;5054502;28;20551;-76
2023/03/08 07:34:55;;;;;;;15.60;12.03;;;;;;;3.96;72.53;94905.66;5054810;28;20702;-77
2023/03/08 07:37:21;;;;;;;18.17;12.63;;;;;;;4.10;72.33;94907.75;5052500;28;20240;-78
2023/03/08 07:39:46;;;;;;;17.33;12.17;;;;;;;4.21;72.29;94902.75;5054377;28;20226;-78
2023/03/08 07:42:11;;;;;;;19.77;13.67;;;;;;;4.16;72.38;94887.88;5052491;28;20560;-78
2023/03/08 07:44:37;;;;;;;15.47;12.33;;;;;;;4.21;72.41;94885.38;5048276;28;20194;-77
2023/03/08 07:47:04;;;;;;;17.37;13.13;;;;;;;4.20;72.67;94883.81;5050663;28;20182;-76
2023/03/08 07:49:30;;;;;;;16.30;12.43;;;;;;;4.17;74.26;94874.69;5053551;28;20251;-77
2023/03/08 07:51:55;;;;;;;17.03;13.27;;;;;;;4.15;74.44;94873.34;5052051;28;20210;-77
2023/03/08 07:54:20;;;;;;;17.50;12.30;;;;;;;4.19;75.30;94872.66;5054159;28;20189;-77
2023/03/08 07:56:46;;;;;;;16.23;12.87;;;;;;;4.48;87.81;94864.81;5054024;28;20201;-70
2023/03/08 07:59:12;;;;;;;14.43;11.43;;;;;;;4.72;79.19;94857.66;5043821;28;20186;-74
2023/03/08 08:01:37;;;;;;;16.30;10.87;;;;;;;4.61;78.71;94856.72;5052670;28;20206;-75
2023/03/08 08:04:03;;;;;;;13.20;10.70;;;;;;;4.33;80.21;94855.00;5045849;28;20191;-77
2023/03/08 08:06:28;;;;;;;12.20;11.00;;;;;;;4.48;80.33;94850.03;5052829;28;20392;-76
2023/03/08 08:08:55;;;;;;;12.53;10.33;;;;;;;4.62;81.89;94836.75;5053559;28;20209;-76
2023/03/08 08:11:21;;;;;;;15.03;11.07;;;;;;;4.60;80.80;94830.00;5053195;28;20213;-76
2023/03/08 08:13:46;;;;;;;13.70;11.23;;;;;;;4.69;80.96;94819.19;5052953;28;20198;-76
2023/03/08 08:16:12;;;;;;;15.37;13.40;;;;;;;4.68;81.66;94812.47;5053561;28;20228;-76
2023/03/08 08:18:38;;;;;;;15.77;13.00;;;;;;;4.88;80.85;94820.53;5052415;28;20193;-76
2023/03/08 08:21:06;;;;;;;15.70;12.93;;;;;;;4.94;81.04;94809.97;5053426;28;20178;-76
2023/03/08 08:23:33;;;;;;;16.00;12.87;;;;;;;4.91;80.15;94799.25;5053547;28;20201;-75
2023/03/08 08:25:58;;;;;;;14.77;11.80;;;;;;;4.92;79.35;94798.25;5052706;28;20210;-77
2023/03/08 08:28:25;;;;;;;15.20;12.40;;;;;;;4.89;78.93;94801.34;5051192;28;20632;-76
2023/03/08 08:31:00;;;;;;;14.23;11.80;;;;;;;4.69;79.43;94791.44;5049869;28;20206;-76
2023/03/08 08:33:27;;;;;;;17.90;12.27;;;;;;;4.81;80.06;94779.16;5049362;28;20276;-76
2023/03/08 08:35:53;;;;;;;16.37;11.40;;;;;;;4.75;79.15;94774.13;5052459;28;20657;-76
2023/03/08 08:38:18;;;;;;;16.00;13.10;;;;;;;4.80;78.82;94756.03;5052886;28;20681;-76
2023/03/08 08:40:44;;;;;;;15.57;11.90;;;;;;;4.73;79.45;94747.66;5046180;28;20289;-76
2023/03/08 08:43:09;;;;;;;14.80;11.13;;;;;;;4.61;79.40;94750.34;5042050;28;20554;-77
2023/03/08 08:45:36;;;;;;;14.07;11.33;;;;;;;4.72;78.63;94749.47;5052778;28;20650;-77
2023/03/08 08:48:01;;;;;;;17.43;11.67;;;;;;;4.84;78.63;94752.75;5053050;28;20193;-77
2023/03/08 08:50:26;;;;;;;15.77;12.10;;;;;;;4.69;78.52;94744.75;5052910;28;20736;-76
2023/03/08 08:52:52;;;;;;;18.63;13.40;;;;;;;4.75;77.77;94737.81;5052527;28;20201;-76
2023/03/08 08:55:17;;;;;;;15.87;14.00;;;;;;;4.75;80.19;94743.78;5051963;28;20194;-76
2023/03/08 08:57:42;;;;;;;15.70;12.50;;;;;;;4.74;79.98;94731.84;5052280;28;20194;-76
2023/03/08 09:00:08;;;;;;;16.27;12.50;;;;;;;4.84;79.76;94736.38;5052763;28;20193;-76
2023/03/08 09:02:34;;;;;;;15.83;12.67;;;;;;;4.94;80.78;94736.50;5052656;28;20240;-77
2023/03/08 09:05:00;;;;;;;17.50;13.27;;;;;;;4.87;79.28;94728.91;5052441;28;20244;-76
2023/03/08 09:07:25;;;;;;;18.40;13.17;;;;;;;4.90;79.79;94732.84;5051980;28;20565;-76
2023/03/08 09:09:53;;;;;;;17.27;12.43;;;;;;;4.85;79.32;94722.34;5052617;28;20605;-77
2023/03/08 09:12:19;;;;;;;16.47;12.47;;;;;;;4.93;78.57;94729.75;5052550;28;20565;-78
2023/03/08 09:14:45;;;;;;;16.50;12.80;;;;;;;5.00;77.01;94728.53;5052700;28;20255;-78
2023/03/08 09:17:10;;;;;;;16.23;13.33;;;;;;;5.01;78.03;94724.13;5052145;28;20635;-78
2023/03/08 09:19:36;;;;;;;15.97;13.37;;;;;;;5.01;77.77;94726.72;5052078;28;20200;-78
2023/03/08 09:22:02;;;;;;;15.80;12.93;;;;;;;4.82;78.71;94723.66;5052740;28;20546;-84
2023/03/08 09:24:27;;;;;;;17.87;13.53;;;;;;;5.04;78.49;94715.84;5052106;28;20235;-77
2023/03/08 09:26:52;;;;;;;19.60;13.60;;;;;;;5.02;78.55;94710.91;5050393;28;20189;-80
2023/03/08 09:29:18;;;;;;;26.30;14.57;;;;;;;5.00;78.85;94707.00;5052435;28;20194;-80
2023/03/08 09:31:44;;;;;;;16.13;13.63;;;;;;;5.20;79.16;94696.03;5051315;28;20750;-81
2023/03/08 09:34:11;;;;;;;18.03;13.80;;;;;;;5.14;78.75;94689.22;5051982;28;20520;-81
2023/03/08 09:36:38;;;;;;;16.57;13.30;;;;;;;5.26;78.19;94690.66;5051598;28;20186;-80
2023/03/08 09:39:04;;;;;;;17.47;13.87;;;;;;;5.18;78.11;94682.53;5052362;28;20272;-81
2023/03/08 09:41:47;;;;;;;17.87;13.27;;;;;;;5.21;78.56;94672.41;5050676;28;20281;-82
2023/03/08 09:44:42;;;;;;;18.60;13.67;;;;;;;5.10;80.00;94678.53;5052544;28;20186;-83
2023/03/08 09:47:45;;;;;;;17.13;15.27;;;;;;;5.41;78.35;94670.00;5048795;28;20221;-84
2023/03/08 09:50:10;;;;;;;17.03;13.50;;;;;;;5.41;77.31;94669.22;5052526;28;20643;-79
2023/03/08 09:52:42;;;;;;;18.50;13.50;;;;;;;5.56;77.69;94673.78;5051905;28;20182;-80
2023/03/08 09:55:29;;;;;;;19.77;14.33;;;;;;;5.60;77.63;94680.81;5054033;28;20587;-78
2023/03/08 09:57:58;;;;;;;17.13;13.77;;;;;;;5.66;79.78;94669.44;5044213;28;20556;-78
2023/03/08 10:00:35;;;;;;;19.67;13.63;;;;;;;5.75;80.17;94665.34;5051854;28;20182;-75
2023/03/08 10:03:25;;;;;;;17.47;13.87;;;;;;;5.96;78.88;94649.94;5051126;28;20646;-77
2023/03/08 10:05:53;;;;;;;21.33;16.10;;;;;;;6.10;77.77;94645.88;5051464;28;20187;-77
2023/03/08 10:08:44;;;;;;;18.77;15.17;;;;;;;5.98;77.53;94645.28;5051678;28;20197;-77
2023/03/08 10:11:19;;;;;;;17.50;14.70;;;;;;;6.02;77.82;94644.50;5048740;28;20209;-76
2023/03/08 10:13:51;;;;;;;20.27;17.43;;;;;;;6.37;76.78;94633.53;5051644;28;20253;-75
2023/03/08 10:16:36;;;;;;;26.27;23.87;;;;;;;6.48;76.54;94642.16;5052352;28;20682;-75
2023/03/08 10:19:40;;;;;;;25.80;23.27;;;;;;;6.62;76.13;94638.88;5051478;28;20552;-77
2023/03/08 10:22:25;;;;;;;22.13;20.07;;;;;;;6.63;76.70;94640.41;5038139;28;20401;-77
2023/03/08 10:25:00;;;;;;;22.50;20.27;;;;;;;6.68;77.55;94631.88;5050533;28;20178;-77
2023/03/08 10:27:30;;;;;;;22.07;20.17;;;;;;;6.93;77.43;94631.16;5051509;28;20235;-77
2023/03/08 10:29:58;;;;;;;21.90;19.73;;;;;;;7.05;77.32;94623.88;5050572;28;20257;-77
2023/03/08 10:32:25;;;;;;;17.30;15.53;;;;;;;6.99;78.93;94627.53;5051152;28;20264;-77
2023/03/08 10:34:51;;;;;;;11.47;9.57;;;;;;;7.07;83.77;94620.00;5051488;28;20709;-76
2023/03/08 10:37:19;;;;;;;9.03;8.13;;;;;;;7.17;85.58;94621.84;5053191;28;20197;-78
2023/03/08 10:39:53;;;;;;;13.60;12.30;;;;;;;7.23;89.66;94612.22;5053343;28;20206;-77
2023/03/08 10:42:26;;;;;;;10.47;8.53;;;;;;;7.47;90.04;94610.66;5050938;28;20704;-78
2023/03/08 10:45:21;;;;;;;6.70;6.10;;;;;;;7.63;90.80;94604.41;5047566;28;20193;-78
2023/03/08 10:47:55;;;;;;;6.73;5.90;;;;;;;8.00;89.90;94601.50;5054951;28;20189;-78
2023/03/08 10:50:23;;;;;;;6.97;6.27;;;;;;;8.35;88.66;94587.63;5054612;28;20212;-78
2023/03/08 10:52:50;;;;;;;8.43;7.27;;;;;;;8.64;88.84;94585.91;5054977;28;20275;-78
2023/03/08 10:55:27;;;;;;;7.20;6.50;;;;;;;8.72;88.52;94572.31;5054829;28;20190;-77
2023/03/08 10:57:59;;;;;;;7.73;7.03;;;;;;;9.10;87.59;94578.63;5056658;28;20178;-76
2023/03/08 11:00:43;;;;;;;6.57;5.97;;;;;;;9.56;85.43;94584.31;5055047;28;20194;-77
2023/03/08 11:03:18;;;;;;;5.50;5.10;;;;;;;9.73;85.40;94570.84;5055244;28;20182;-76
2023/03/08 11:06:19;;;;;;;5.17;4.70;;;;;;;9.93;84.81;94562.00;5055075;28;20255;-75
2023/03/08 11:08:53;;;;;;;4.60;4.20;;;;;;;9.80;86.22;94580.97;5032843;28;20276;-76
2023/03/08 11:11:19;;;;;;;4.13;3.83;;;;;;;9.70;87.53;94565.34;5051707;28;20611;-77
2023/03/08 11:13:46;;;;;;;4.30;4.00;;;;;;;9.74;88.12;94558.53;5054778;28;20242;-76
2023/03/08 11:16:44;;;;;;;4.87;4.43;;;;;;;9.70;89.07;94554.88;5054716;28;20553;-79
2023/03/08 11:19:28;;;;;;;4.23;3.83;;;;;;;9.91;88.75;94562.31;5054344;28;20190;-76
2023/03/08 11:22:03;;;;;;;3.80;3.60;;;;;;;9.92;89.23;94565.66;5053317;28;20217;-79
2023/03/08 11:24:46;;;;;;;4.23;3.93;;;;;;;9.94;89.55;94560.94;5054830;28;20182;-75
2023/03/08 11:27:14;;;;;;;4.00;3.70;;;;;;;9.97;89.81;94574.25;5054301;28;20557;-75
2023/03/08 11:29:51;;;;;;;3.70;3.40;;;;;;;10.03;89.65;94575.75;5054531;28;20654;-75
2023/03/08 11:32:39;;;;;;;4.33;4.13;;;;;;;10.11;89.14;94589.31;5053792;28;20228;-75